sensor_id;sensor_type;location;lat;lon;timestamp;pressure;altitude;pressure_sealevel;temperature;humidity
40574;BME280;26283;49.020;8.644;2024-01-27T00:01:17;101057.91;;;10.42;60.92
40574;BME280;26283;49.020;8.644;2024-01-27T00:03:42;101057.06;;;10.42;60.91
40574;BME280;26283;49.020;8.644;2024-01-27T00:06:07;101067.84;;;10.42;60.92
40574;BME280;26283;49.020;8.644;2024-01-27T00:08:33;101063.66;;;10.39;60.91
40574;BME280;26283;49.020;8.644;2024-01-27T00:10:58;101060.97;;;10.39;60.92
40574;BME280;26283;49.020;8.644;2024-01-27T00:13:24;101064.47;;;10.40;60.90
40574;BME280;26283;49.020;8.644;2024-01-27T00:15:49;101053.06;;;10.38;60.88
40574;BME280;26283;49.020;8.644;2024-01-27T00:18:15;101067.56;;;10.37;60.87
40574;BME280;26283;49.020;8.644;2024-01-27T00:20:41;101078.31;;;10.37;60.85
40574;BME280;26283;49.020;8.644;2024-01-27T00:23:07;101074.78;;;10.36;60.86
40574;BME280;26283;49.020;8.644;2024-01-27T00:25:33;101071.44;;;10.34;60.84
40574;BME280;26283;49.020;8.644;2024-01-27T00:27:58;101075.97;;;10.34;60.84
40574;BME280;26283;49.020;8.644;2024-01-27T00:30:24;101083.22;;;10.33;60.84
40574;BME280;26283;49.020;8.644;2024-01-27T00:32:49;101080.69;;;10.32;60.80
40574;BME280;26283;49.020;8.644;2024-01-27T00:35:15;101083.38;;;10.32;60.81
40574;BME280;26283;49.020;8.644;2024-01-27T00:37:41;101077.16;;;10.31;60.83
40574;BME280;26283;49.020;8.644;2024-01-27T00:40:10;101081.88;;;10.29;60.79
40574;BME280;26283;49.020;8.644;2024-01-27T00:42:36;101086.44;;;10.28;60.83
40574;BME280;26283;49.020;8.644;2024-01-27T00:45:03;101082.88;;;10.28;60.80
40574;BME280;26283;49.020;8.644;2024-01-27T00:47:28;101089.28;;;10.27;60.81
40574;BME280;26283;49.020;8.644;2024-01-27T00:49:53;101091.97;;;10.27;60.80
40574;BME280;26283;49.020;8.644;2024-01-27T00:52:20;101093.16;;;10.24;60.77
40574;BME280;26283;49.020;8.644;2024-01-27T00:54:45;101086.09;;;10.23;60.80
40574;BME280;26283;49.020;8.644;2024-01-27T00:57:10;101094.19;;;10.23;60.76
40574;BME280;26283;49.020;8.644;2024-01-27T00:59:36;101099.72;;;10.22;60.71
40574;BME280;26283;49.020;8.644;2024-01-27T01:02:01;101105.97;;;10.22;60.66
40574;BME280;26283;49.020;8.644;2024-01-27T01:04:27;101101.59;;;10.21;60.65
40574;BME280;26283;49.020;8.644;2024-01-27T01:06:52;101096.38;;;10.20;60.59
40574;BME280;26283;49.020;8.644;2024-01-27T01:09:17;101098.22;;;10.19;60.65
40574;BME280;26283;49.020;8.644;2024-01-27T01:11:43;101098.34;;;10.18;60.62
40574;BME280;26283;49.020;8.644;2024-01-27T01:14:08;101098.34;;;10.18;60.63
40574;BME280;26283;49.020;8.644;2024-01-27T01:16:33;101103.94;;;10.16;60.65
40574;BME280;26283;49.020;8.644;2024-01-27T01:18:59;101108.50;;;10.16;60.63
40574;BME280;26283;49.020;8.644;2024-01-27T01:21:24;101103.28;;;10.14;60.63
40574;BME280;26283;49.020;8.644;2024-01-27T01:23:50;101107.81;;;10.14;60.59
40574;BME280;26283;49.020;8.644;2024-01-27T01:26:15;101109.66;;;10.13;60.60
40574;BME280;26283;49.020;8.644;2024-01-27T01:28:40;101111.53;;;10.13;60.57
40574;BME280;26283;49.020;8.644;2024-01-27T01:31:06;101126.84;;;10.12;60.55
40574;BME280;26283;49.020;8.644;2024-01-27T01:33:32;101125.16;;;10.11;60.55
40574;BME280;26283;49.020;8.644;2024-01-27T01:35:58;101132.41;;;10.11;60.54
40574;BME280;26283;49.020;8.644;2024-01-27T01:38:23;101129.88;;;10.09;60.57
40574;BME280;26283;49.020;8.644;2024-01-27T01:40:48;101132.75;;;10.08;60.55
40574;BME280;26283;49.020;8.644;2024-01-27T01:43:14;101127.34;;;10.08;60.59
40574;BME280;26283;49.020;8.644;2024-01-27T01:45:39;101130.22;;;10.06;60.59
40574;BME280;26283;49.020;8.644;2024-01-27T01:48:05;101139.13;;;10.07;60.59
40574;BME280;26283;49.020;8.644;2024-01-27T01:50:32;101133.06;;;10.05;60.63
40574;BME280;26283;49.020;8.644;2024-01-27T01:52:58;101134.09;;;10.04;60.59
40574;BME280;26283;49.020;8.644;2024-01-27T01:55:23;101140.47;;;10.03;60.57
40574;BME280;26283;49.020;8.644;2024-01-27T01:57:50;101145.03;;;10.02;60.54
40574;BME280;26283;49.020;8.644;2024-01-27T02:00:16;101151.41;;;10.01;60.59
40574;BME280;26283;49.020;8.644;2024-01-27T02:02:45;101165.72;;;10.02;60.58
40574;BME280;26283;49.020;8.644;2024-01-27T02:05:13;101151.75;;;9.98;60.62
40574;BME280;26283;49.020;8.644;2024-01-27T02:07:39;101166.06;;;9.98;60.56
40574;BME280;26283;49.020;8.644;2024-01-27T02:10:06;101150.06;;;9.97;60.56
40574;BME280;26283;49.020;8.644;2024-01-27T02:12:37;101157.31;;;9.96;60.56
40574;BME280;26283;49.020;8.644;2024-01-27T02:15:03;101159.16;;;9.96;60.54
40574;BME280;26283;49.020;8.644;2024-01-27T02:17:28;101160.19;;;9.95;60.56
40574;BME280;26283;49.020;8.644;2024-01-27T02:19:54;101171.16;;;9.93;60.56
40574;BME280;26283;49.020;8.644;2024-01-27T02:22:19;101164.91;;;9.93;60.54
40574;BME280;26283;49.020;8.644;2024-01-27T02:24:44;101170.31;;;9.93;60.52
40574;BME280;26283;49.020;8.644;2024-01-27T02:27:11;101171.31;;;9.92;60.51
40574;BME280;26283;49.020;8.644;2024-01-27T02:29:37;101169.63;;;9.91;60.50
40574;BME280;26283;49.020;8.644;2024-01-27T02:32:02;101176.03;;;9.90;60.52
40574;BME280;26283;49.020;8.644;2024-01-27T02:34:28;101185.94;;;9.89;60.52
40574;BME280;26283;49.020;8.644;2024-01-27T02:36:53;101178.88;;;9.88;60.52
40574;BME280;26283;49.020;8.644;2024-01-27T02:39:19;101172.66;;;9.88;60.50
40574;BME280;26283;49.020;8.644;2024-01-27T02:41:44;101171.81;;;9.87;60.45
40574;BME280;26283;49.020;8.644;2024-01-27T02:44:09;101170.13;;;9.86;60.40
40574;BME280;26283;49.020;8.644;2024-01-27T02:46:35;101172.13;;;9.84;60.37
40574;BME280;26283;49.020;8.644;2024-01-27T02:49:00;101171.28;;;9.84;60.38
40574;BME280;26283;49.020;8.644;2024-01-27T02:51:25;101176.84;;;9.82;60.41
40574;BME280;26283;49.020;8.644;2024-01-27T02:53:51;101179.53;;;9.82;60.41
40574;BME280;26283;49.020;8.644;2024-01-27T02:56:16;101177.00;;;9.81;60.42
40574;BME280;26283;49.020;8.644;2024-01-27T02:58:42;101176.00;;;9.82;60.37
40574;BME280;26283;49.020;8.644;2024-01-27T03:01:07;101175.31;;;9.80;60.35
40574;BME280;26283;49.020;8.644;2024-01-27T03:03:33;101174.47;;;9.79;60.34
40574;BME280;26283;49.020;8.644;2024-01-27T03:05:58;101181.72;;;9.79;60.36
40574;BME280;26283;49.020;8.644;2024-01-27T03:08:24;101183.72;;;9.77;60.34
40574;BME280;26283;49.020;8.644;2024-01-27T03:10:50;101180.19;;;9.76;60.35
40574;BME280;26283;49.020;8.644;2024-01-27T03:13:15;101176.66;;;9.76;60.33
40574;BME280;26283;49.020;8.644;2024-01-27T03:15:41;101183.06;;;9.75;60.33
40574;BME280;26283;49.020;8.644;2024-01-27T03:18:08;101181.19;;;9.75;60.26
40574;BME280;26283;49.020;8.644;2024-01-27T03:20:33;101179.72;;;9.73;60.28
40574;BME280;26283;49.020;8.644;2024-01-27T03:22:59;101180.56;;;9.73;60.27
40574;BME280;26283;49.020;8.644;2024-01-27T03:25:24;101178.88;;;9.72;60.31
40574;BME280;26283;49.020;8.644;2024-01-27T03:27:51;101181.72;;;9.71;60.27
40574;BME280;26283;49.020;8.644;2024-01-27T03:30:16;101188.12;;;9.70;60.29
40574;BME280;26283;49.020;8.644;2024-01-27T03:32:42;101193.66;;;9.68;60.23
40574;BME280;26283;49.020;8.644;2024-01-27T03:35:07;101194.50;;;9.69;60.25
40574;BME280;26283;49.020;8.644;2024-01-27T03:37:33;101197.38;;;9.67;60.25
40574;BME280;26283;49.020;8.644;2024-01-27T03:40:00;101191.12;;;9.67;60.28
40574;BME280;26283;49.020;8.644;2024-01-27T03:42:25;101198.53;;;9.65;60.22
40574;BME280;26283;49.020;8.644;2024-01-27T03:44:50;101203.75;;;9.66;60.20
40574;BME280;26283;49.020;8.644;2024-01-27T03:47:17;101195.16;;;9.62;60.19
40574;BME280;26283;49.020;8.644;2024-01-27T03:49:42;101189.78;;;9.62;60.18
40574;BME280;26283;49.020;8.644;2024-01-27T03:52:08;101199.69;;;9.62;60.14
40574;BME280;26283;49.020;8.644;2024-01-27T03:54:33;101197.19;;;9.60;60.19
40574;BME280;26283;49.020;8.644;2024-01-27T03:56:59;101193.81;;;9.58;60.19
40574;BME280;26283;49.020;8.644;2024-01-27T03:59:24;101195.66;;;9.58;60.17
40574;BME280;26283;49.020;8.644;2024-01-27T04:01:49;101199.19;;;9.58;60.22
40574;BME280;26283;49.020;8.644;2024-01-27T04:04:15;101205.56;;;9.57;60.23
40574;BME280;26283;49.020;8.644;2024-01-27T04:06:40;101197.50;;;9.57;60.23
40574;BME280;26283;49.020;8.644;2024-01-27T04:09:06;101200.34;;;9.56;60.24
40574;BME280;26283;49.020;8.644;2024-01-27T04:11:35;101213.81;;;9.56;60.20
40574;BME280;26283;49.020;8.644;2024-01-27T04:14:04;101213.97;;;9.54;60.14
40574;BME280;26283;49.020;8.644;2024-01-27T04:16:30;101214.97;;;9.53;60.12
40574;BME280;26283;49.020;8.644;2024-01-27T04:18:55;101216.03;;;9.52;60.17
40574;BME280;26283;49.020;8.644;2024-01-27T04:21:21;101208.94;;;9.51;60.20
40574;BME280;26283;49.020;8.644;2024-01-27T04:23:46;101218.88;;;9.51;60.19
40574;BME280;26283;49.020;8.644;2024-01-27T04:26:12;101224.25;;;9.51;60.15
40574;BME280;26283;49.020;8.644;2024-01-27T04:28:37;101220.72;;;9.50;60.11
40574;BME280;26283;49.020;8.644;2024-01-27T04:31:03;101221.03;;;9.47;60.10
40574;BME280;26283;49.020;8.644;2024-01-27T04:33:28;101219.19;;;9.48;60.09
40574;BME280;26283;49.020;8.644;2024-01-27T04:35:54;101222.88;;;9.47;60.08
40574;BME280;26283;49.020;8.644;2024-01-27T04:38:19;101228.28;;;9.47;60.11
40574;BME280;26283;49.020;8.644;2024-01-27T04:40:45;101230.28;;;9.45;60.11
40574;BME280;26283;49.020;8.644;2024-01-27T04:43:14;101225.91;;;9.44;60.10
40574;BME280;26283;49.020;8.644;2024-01-27T04:45:40;101229.44;;;9.44;60.20
40574;BME280;26283;49.020;8.644;2024-01-27T04:48:05;101232.28;;;9.43;60.08
40574;BME280;26283;49.020;8.644;2024-01-27T04:50:31;101234.13;;;9.42;60.04
40574;BME280;26283;49.020;8.644;2024-01-27T04:52:56;101236.00;;;9.42;59.99
40574;BME280;26283;49.020;8.644;2024-01-27T04:55:21;101239.69;;;9.41;59.97
40574;BME280;26283;49.020;8.644;2024-01-27T04:57:47;101240.69;;;9.40;59.97
40574;BME280;26283;49.020;8.644;2024-01-27T05:00:13;101241.69;;;9.39;60.03
40574;BME280;26283;49.020;8.644;2024-01-27T05:02:39;101236.31;;;9.39;60.04
40574;BME280;26283;49.020;8.644;2024-01-27T05:05:06;101240.00;;;9.38;59.99
40574;BME280;26283;49.020;8.644;2024-01-27T05:07:32;101235.78;;;9.35;59.96
40574;BME280;26283;49.020;8.644;2024-01-27T05:09:57;101235.78;;;9.35;59.97
40574;BME280;26283;49.020;8.644;2024-01-27T05:12:22;101232.41;;;9.33;59.99
40574;BME280;26283;49.020;8.644;2024-01-27T05:14:48;101235.09;;;9.33;59.96
40574;BME280;26283;49.020;8.644;2024-01-27T05:17:13;101233.41;;;9.32;59.95
40574;BME280;26283;49.020;8.644;2024-01-27T05:19:39;101229.87;;;9.32;59.96
40574;BME280;26283;49.020;8.644;2024-01-27T05:22:04;101228.22;;;9.31;59.95
40574;BME280;26283;49.020;8.644;2024-01-27T05:24:30;101236.47;;;9.29;59.94
40574;BME280;26283;49.020;8.644;2024-01-27T05:26:56;101241.84;;;9.29;59.90
40574;BME280;26283;49.020;8.644;2024-01-27T05:29:21;101229.38;;;9.28;59.87
40574;BME280;26283;49.020;8.644;2024-01-27T05:31:47;101232.25;;;9.26;59.88
40574;BME280;26283;49.020;8.644;2024-01-27T05:34:13;101230.56;;;9.25;59.92
40574;BME280;26283;49.020;8.644;2024-01-27T05:36:38;101228.88;;;9.24;59.92
40574;BME280;26283;49.020;8.644;2024-01-27T05:39:03;101230.56;;;9.25;59.96
40574;BME280;26283;49.020;8.644;2024-01-27T05:41:30;101232.56;;;9.23;59.94
40574;BME280;26283;49.020;8.644;2024-01-27T05:43:56;101240.78;;;9.22;59.93
40574;BME280;26283;49.020;8.644;2024-01-27T05:46:24;101242.63;;;9.21;59.90
40574;BME280;26283;49.020;8.644;2024-01-27T05:48:50;101252.56;;;9.21;59.87
40574;BME280;26283;49.020;8.644;2024-01-27T05:51:18;101243.63;;;9.20;59.89
40574;BME280;26283;49.020;8.644;2024-01-27T05:53:44;101239.25;;;9.19;59.87
40574;BME280;26283;49.020;8.644;2024-01-27T05:56:10;101242.97;;;9.18;59.91
40574;BME280;26283;49.020;8.644;2024-01-27T05:58:35;101243.97;;;9.17;59.92
40574;BME280;26283;49.020;8.644;2024-01-27T06:01:00;101244.13;;;9.16;59.91
40574;BME280;26283;49.020;8.644;2024-01-27T06:03:26;101254.03;;;9.15;59.89
40574;BME280;26283;49.020;8.644;2024-01-27T06:05:51;101252.34;;;9.14;59.86
40574;BME280;26283;49.020;8.644;2024-01-27T06:08:17;101249.66;;;9.14;59.85
40574;BME280;26283;49.020;8.644;2024-01-27T06:10:43;101247.97;;;9.13;59.78
40574;BME280;26283;49.020;8.644;2024-01-27T06:13:08;101245.44;;;9.12;59.73
40574;BME280;26283;49.020;8.644;2024-01-27T06:15:34;101243.75;;;9.11;59.75
40574;BME280;26283;49.020;8.644;2024-01-27T06:17:59;101256.19;;;9.12;59.78
40574;BME280;26283;49.020;8.644;2024-01-27T06:20:25;101252.81;;;9.10;59.73
40574;BME280;26283;49.020;8.644;2024-01-27T06:22:50;101251.16;;;9.09;59.75
40574;BME280;26283;49.020;8.644;2024-01-27T06:25:17;101251.16;;;9.09;59.72
40574;BME280;26283;49.020;8.644;2024-01-27T06:27:42;101254.84;;;9.08;59.68
40574;BME280;26283;49.020;8.644;2024-01-27T06:30:08;101258.56;;;9.07;59.76
40574;BME280;26283;49.020;8.644;2024-01-27T06:32:35;101256.03;;;9.05;59.76
40574;BME280;26283;49.020;8.644;2024-01-27T06:35:00;101256.87;;;9.06;59.73
40574;BME280;26283;49.020;8.644;2024-01-27T06:37:25;101254.34;;;9.04;59.70
40574;BME280;26283;49.020;8.644;2024-01-27T06:39:51;101252.66;;;9.03;59.68
40574;BME280;26283;49.020;8.644;2024-01-27T06:42:16;101246.59;;;9.01;59.71
40574;BME280;26283;49.020;8.644;2024-01-27T06:44:41;101247.41;;;9.02;59.73
40574;BME280;26283;49.020;8.644;2024-01-27T06:47:07;101258.34;;;9.00;59.70
40574;BME280;26283;49.020;8.644;2024-01-27T06:49:32;101246.91;;;8.98;59.69
40574;BME280;26283;49.020;8.644;2024-01-27T06:51:58;101258.50;;;8.99;59.67
40574;BME280;26283;49.020;8.644;2024-01-27T06:54:24;101258.66;;;8.97;59.64
40574;BME280;26283;49.020;8.644;2024-01-27T06:56:49;101263.19;;;8.97;59.64
40574;BME280;26283;49.020;8.644;2024-01-27T06:59:14;101261.50;;;8.96;59.64
40574;BME280;26283;49.020;8.644;2024-01-27T07:01:47;101261.50;;;8.96;59.62
40574;BME280;26283;49.020;8.644;2024-01-27T07:04:15;101259.81;;;8.94;59.70
40574;BME280;26283;49.020;8.644;2024-01-27T07:06:41;101269.72;;;8.94;59.54
40574;BME280;26283;49.020;8.644;2024-01-27T07:09:06;101264.50;;;8.92;59.59
40574;BME280;26283;49.020;8.644;2024-01-27T07:11:32;101261.97;;;8.91;59.54
40574;BME280;26283;49.020;8.644;2024-01-27T07:13:58;101265.50;;;8.91;59.57
40574;BME280;26283;49.020;8.644;2024-01-27T07:16:24;101264.66;;;8.91;59.58
40574;BME280;26283;49.020;8.644;2024-01-27T07:18:50;101269.19;;;8.90;59.58
40574;BME280;26283;49.020;8.644;2024-01-27T07:21:16;101267.50;;;8.89;59.55
40574;BME280;26283;49.020;8.644;2024-01-27T07:23:43;101265.81;;;8.88;59.51
40574;BME280;26283;49.020;8.644;2024-01-27T07:26:11;101273.03;;;8.88;59.50
40574;BME280;26283;49.020;8.644;2024-01-27T07:28:37;101274.06;;;8.87;59.60
40574;BME280;26283;49.020;8.644;2024-01-27T07:31:04;101268.84;;;8.85;59.60
40574;BME280;26283;49.020;8.644;2024-01-27T07:33:30;101260.78;;;8.85;59.65
40574;BME280;26283;49.020;8.644;2024-01-27T07:35:55;101264.47;;;8.84;59.63
40574;BME280;26283;49.020;8.644;2024-01-27T07:38:20;101268.31;;;8.82;59.57
40574;BME280;26283;49.020;8.644;2024-01-27T07:40:46;101279.06;;;8.82;59.53
40574;BME280;26283;49.020;8.644;2024-01-27T07:43:11;101276.38;;;8.82;59.59
40574;BME280;26283;49.020;8.644;2024-01-27T07:45:36;101283.59;;;8.81;59.64
40574;BME280;26283;49.020;8.644;2024-01-27T07:48:02;101276.53;;;8.80;59.61
40574;BME280;26283;49.020;8.644;2024-01-27T07:50:28;101275.69;;;8.80;59.59
40574;BME280;26283;49.020;8.644;2024-01-27T07:52:53;101275.00;;;8.78;59.67
40574;BME280;26283;49.020;8.644;2024-01-27T07:55:18;101280.38;;;8.78;59.75
40574;BME280;26283;49.020;8.644;2024-01-27T07:57:44;101269.62;;;8.78;59.78
40574;BME280;26283;49.020;8.644;2024-01-27T08:00:09;101275.16;;;8.76;59.81
40574;BME280;26283;49.020;8.644;2024-01-27T08:02:35;101270.78;;;8.75;59.86
40574;BME280;26283;49.020;8.644;2024-01-27T08:05:02;101276.31;;;8.74;59.94
40574;BME280;26283;49.020;8.644;2024-01-27T08:07:28;101274.47;;;8.74;59.96
40574;BME280;26283;49.020;8.644;2024-01-27T08:09:54;101286.22;;;8.73;59.95
40574;BME280;26283;49.020;8.644;2024-01-27T08:12:19;101290.75;;;8.73;60.09
40574;BME280;26283;49.020;8.644;2024-01-27T08:14:45;101288.22;;;8.71;60.15
40574;BME280;26283;49.020;8.644;2024-01-27T08:17:10;101288.22;;;8.71;60.20
40574;BME280;26283;49.020;8.644;2024-01-27T08:19:35;101282.84;;;8.71;60.18
40574;BME280;26283;49.020;8.644;2024-01-27T08:22:01;101273.09;;;8.70;60.18
40574;BME280;26283;49.020;8.644;2024-01-27T08:24:26;101260.66;;;8.69;60.19
40574;BME280;26283;49.020;8.644;2024-01-27T08:26:52;101266.03;;;8.69;60.25
40574;BME280;26283;49.020;8.644;2024-01-27T08:29:17;101262.66;;;8.67;60.30
40574;BME280;26283;49.020;8.644;2024-01-27T08:31:42;101262.66;;;8.67;60.35
40574;BME280;26283;49.020;8.644;2024-01-27T08:34:08;101267.19;;;8.67;60.42
40574;BME280;26283;49.020;8.644;2024-01-27T08:36:34;101258.28;;;8.66;60.49
40574;BME280;26283;49.020;8.644;2024-01-27T08:39:00;101258.28;;;8.66;60.56
40574;BME280;26283;49.020;8.644;2024-01-27T08:41:25;101266.34;;;8.66;60.57
40574;BME280;26283;49.020;8.644;2024-01-27T08:43:51;101266.34;;;8.66;60.68
40574;BME280;26283;49.020;8.644;2024-01-27T08:46:16;101262.00;;;8.65;60.73
40574;BME280;26283;49.020;8.644;2024-01-27T08:48:44;101257.63;;;8.64;60.78
40574;BME280;26283;49.020;8.644;2024-01-27T08:51:10;101263.00;;;8.64;60.86
40574;BME280;26283;49.020;8.644;2024-01-27T08:53:38;101264.69;;;8.65;60.97
40574;BME280;26283;49.020;8.644;2024-01-27T08:56:03;101264.69;;;8.65;60.98
40574;BME280;26283;49.020;8.644;2024-01-27T08:58:30;101279.12;;;8.64;60.96
40574;BME280;26283;49.020;8.644;2024-01-27T09:00:55;101288.03;;;8.65;60.99
40574;BME280;26283;49.020;8.644;2024-01-27T09:03:20;101292.56;;;8.64;61.01
40574;BME280;26283;49.020;8.644;2024-01-27T09:05:46;101297.94;;;8.64;61.04
40574;BME280;26283;49.020;8.644;2024-01-27T09:08:12;101298.78;;;8.65;61.09
40574;BME280;26283;49.020;8.644;2024-01-27T09:10:37;101294.25;;;8.65;61.14
40574;BME280;26283;49.020;8.644;2024-01-27T09:13:03;101307.69;;;8.65;62.39
40574;BME280;26283;49.020;8.644;2024-01-27T09:15:28;101303.34;;;8.72;62.27
40574;BME280;26283;49.020;8.644;2024-01-27T09:17:54;101305.75;;;8.75;62.06
40574;BME280;26283;49.020;8.644;2024-01-27T09:20:20;101304.75;;;8.76;61.94
40574;BME280;26283;49.020;8.644;2024-01-27T09:22:45;101312.13;;;8.74;61.89
40574;BME280;26283;49.020;8.644;2024-01-27T09:25:13;101313.81;;;8.75;61.89
40574;BME280;26283;49.020;8.644;2024-01-27T09:27:39;101309.44;;;8.74;61.91
40574;BME280;26283;49.020;8.644;2024-01-27T09:30:05;101317.50;;;8.74;61.95
40574;BME280;26283;49.020;8.644;2024-01-27T09:32:30;101319.34;;;8.74;61.98
40574;BME280;26283;49.020;8.644;2024-01-27T09:34:56;101319.34;;;8.74;62.01
40574;BME280;26283;49.020;8.644;2024-01-27T09:37:21;101327.41;;;8.74;62.06
40574;BME280;26283;49.020;8.644;2024-01-27T09:39:46;101322.19;;;8.72;62.10
40574;BME280;26283;49.020;8.644;2024-01-27T09:42:13;101320.19;;;8.74;62.13
40574;BME280;26283;49.020;8.644;2024-01-27T09:44:43;101324.72;;;8.74;62.17
40574;BME280;26283;49.020;8.644;2024-01-27T09:47:10;101329.25;;;8.73;62.21
40574;BME280;26283;49.020;8.644;2024-01-27T09:49:38;101328.25;;;8.74;62.25
40574;BME280;26283;49.020;8.644;2024-01-27T09:52:05;101319.34;;;8.74;62.27
40574;BME280;26283;49.020;8.644;2024-01-27T09:54:30;101313.81;;;8.75;62.31
40574;BME280;26283;49.020;8.644;2024-01-27T09:56:56;101313.81;;;8.75;62.33
40574;BME280;26283;49.020;8.644;2024-01-27T09:59:22;101311.97;;;8.76;62.34
40574;BME280;26283;49.020;8.644;2024-01-27T10:01:48;101315.50;;;8.76;62.36
40574;BME280;26283;49.020;8.644;2024-01-27T10:04:13;101311.81;;;8.77;62.38
40574;BME280;26283;49.020;8.644;2024-01-27T10:06:40;101304.75;;;8.76;62.38
40574;BME280;26283;49.020;8.644;2024-01-27T10:09:06;101308.97;;;8.79;62.39
40574;BME280;26283;49.020;8.644;2024-01-27T10:11:36;101311.66;;;8.79;62.40
40574;BME280;26283;49.020;8.644;2024-01-27T10:14:01;101304.44;;;8.79;62.41
40574;BME280;26283;49.020;8.644;2024-01-27T10:16:28;101304.28;;;8.81;62.40
40574;BME280;26283;49.020;8.644;2024-01-27T10:19:03;101299.75;;;8.81;62.40
40574;BME280;26283;49.020;8.644;2024-01-27T10:21:28;101293.38;;;8.82;62.40
40574;BME280;26283;49.020;8.644;2024-01-27T10:23:54;101288.00;;;8.82;62.38
40574;BME280;26283;49.020;8.644;2024-01-27T10:26:19;101283.44;;;8.83;62.39
40574;BME280;26283;49.020;8.644;2024-01-27T10:28:55;101278.91;;;8.83;62.39
40574;BME280;26283;49.020;8.644;2024-01-27T10:31:28;101275.22;;;8.84;62.39
40574;BME280;26283;49.020;8.644;2024-01-27T10:33:55;101267.16;;;8.84;62.39
40574;BME280;26283;49.020;8.644;2024-01-27T10:36:22;101264.31;;;8.86;62.39
40574;BME280;26283;49.020;8.644;2024-01-27T10:38:47;101265.16;;;8.86;62.39
40574;BME280;26283;49.020;8.644;2024-01-27T10:41:22;101259.59;;;8.88;62.39
40574;BME280;26283;49.020;8.644;2024-01-27T10:43:53;101263.13;;;8.88;62.39
40574;BME280;26283;49.020;8.644;2024-01-27T10:46:21;101270.19;;;8.89;62.38
40574;BME280;26283;49.020;8.644;2024-01-27T10:48:51;101272.03;;;8.89;62.37
40574;BME280;26283;49.020;8.644;2024-01-27T10:51:27;101274.56;;;8.90;62.38
40574;BME280;26283;49.020;8.644;2024-01-27T10:54:01;101264.66;;;8.91;62.38
40574;BME280;26283;49.020;8.644;2024-01-27T10:56:27;101268.19;;;8.91;62.38
40574;BME280;26283;49.020;8.644;2024-01-27T10:58:56;101273.41;;;8.93;62.36
40574;BME280;26283;49.020;8.644;2024-01-27T11:01:22;101268.03;;;8.93;62.37
40574;BME280;26283;49.020;8.644;2024-01-27T11:03:48;101259.81;;;8.94;62.37
40574;BME280;26283;49.020;8.644;2024-01-27T11:06:15;101261.50;;;8.96;62.36
40574;BME280;26283;49.020;8.644;2024-01-27T11:08:43;101255.28;;;8.95;62.35
40574;BME280;26283;49.020;8.644;2024-01-27T11:11:08;101256.97;;;8.96;62.36
40574;BME280;26283;49.020;8.644;2024-01-27T11:13:35;101260.34;;;8.98;62.36
40574;BME280;26283;49.020;8.644;2024-01-27T11:16:01;101250.44;;;8.99;62.34
40574;BME280;26283;49.020;8.644;2024-01-27T11:18:27;101250.44;;;8.99;62.34
40574;BME280;26283;49.020;8.644;2024-01-27T11:20:53;101257.50;;;9.00;62.33
40574;BME280;26283;49.020;8.644;2024-01-27T11:23:19;101252.97;;;9.00;62.32
40574;BME280;26283;49.020;8.644;2024-01-27T11:25:44;101255.50;;;9.02;62.31
40574;BME280;26283;49.020;8.644;2024-01-27T11:28:13;101258.19;;;9.02;62.31
40574;BME280;26283;49.020;8.644;2024-01-27T11:30:40;101250.97;;;9.02;62.29
40574;BME280;26283;49.020;8.644;2024-01-27T11:33:10;101241.03;;;9.03;62.29
40574;BME280;26283;49.020;8.644;2024-01-27T11:35:35;101246.25;;;9.04;62.28
40574;BME280;26283;49.020;8.644;2024-01-27T11:38:01;101249.78;;;9.05;62.29
40574;BME280;26283;49.020;8.644;2024-01-27T11:40:26;101249.63;;;9.06;62.27
40574;BME280;26283;49.020;8.644;2024-01-27T11:42:59;101253.16;;;9.07;62.26
40574;BME280;26283;49.020;8.644;2024-01-27T11:45:25;101243.25;;;9.07;62.26
40574;BME280;26283;49.020;8.644;2024-01-27T11:47:52;101237.88;;;9.07;62.24
40574;BME280;26283;49.020;8.644;2024-01-27T11:50:18;101237.88;;;9.07;62.23
40574;BME280;26283;49.020;8.644;2024-01-27T11:52:44;101236.69;;;9.10;62.23
40574;BME280;26283;49.020;8.644;2024-01-27T11:55:10;101220.53;;;9.10;62.22
40574;BME280;26283;49.020;8.644;2024-01-27T11:57:35;101223.06;;;9.11;62.21
40574;BME280;26283;49.020;8.644;2024-01-27T12:00:01;101217.69;;;9.11;62.20
40574;BME280;26283;49.020;8.644;2024-01-27T12:02:26;101214.84;;;9.13;62.21
40574;BME280;26283;49.020;8.644;2024-01-27T12:04:52;101214.84;;;9.13;62.20
40574;BME280;26283;49.020;8.644;2024-01-27T12:07:18;101219.22;;;9.14;62.19
40574;BME280;26283;49.020;8.644;2024-01-27T12:09:50;101215.53;;;9.15;62.19
40574;BME280;26283;49.020;8.644;2024-01-27T12:12:16;101208.31;;;9.15;62.18
40574;BME280;26283;49.020;8.644;2024-01-27T12:14:51;101200.06;;;9.17;62.17
40574;BME280;26283;49.020;8.644;2024-01-27T12:17:17;101193.69;;;9.18;62.16
40574;BME280;26283;49.020;8.644;2024-01-27T12:19:47;101192.69;;;9.19;62.16
40574;BME280;26283;49.020;8.644;2024-01-27T12:22:27;101192.69;;;9.19;62.15
40574;BME280;26283;49.020;8.644;2024-01-27T12:24:54;101195.22;;;9.20;62.15
40574;BME280;26283;49.020;8.644;2024-01-27T12:27:24;101192.38;;;9.22;62.13
40574;BME280;26283;49.020;8.644;2024-01-27T12:29:49;101192.38;;;9.22;62.13
40574;BME280;26283;49.020;8.644;2024-01-27T12:32:16;101191.38;;;9.23;62.12
40574;BME280;26283;49.020;8.644;2024-01-27T12:34:42;101193.72;;;9.26;62.12
40574;BME280;26283;49.020;8.644;2024-01-27T12:37:11;101192.03;;;9.25;62.11
40574;BME280;26283;49.020;8.644;2024-01-27T12:39:36;101197.25;;;9.26;62.11
40574;BME280;26283;49.020;8.644;2024-01-27T12:42:03;101200.81;;;9.27;62.09
40574;BME280;26283;49.020;8.644;2024-01-27T12:44:28;101199.63;;;9.30;62.08
40574;BME280;26283;49.020;8.644;2024-01-27T12:46:54;101193.41;;;9.29;62.07
40574;BME280;26283;49.020;8.644;2024-01-27T12:49:19;101194.06;;;9.31;62.06
40574;BME280;26283;49.020;8.644;2024-01-27T12:51:44;101198.44;;;9.32;62.04